createdAt,value
2018-08-07T00:02:12.780Z,73.39
2018-08-07T00:04:41.269Z,73.28
2018-08-07T00:07:09.762Z,72.88
2018-08-07T00:09:38.260Z,73.04
2018-08-07T00:12:06.776Z,73.34
2018-08-07T00:14:35.255Z,73.20
2018-08-07T00:17:03.740Z,73.86
2018-08-07T00:19:32.232Z,74.02
2018-08-07T00:22:00.714Z,70.86
2018-08-07T00:24:29.202Z,69.08
2018-08-07T00:26:57.736Z,67.56
2018-08-07T00:29:26.215Z,66.38
2018-08-07T00:31:54.757Z,64.83
2018-08-07T00:34:23.235Z,64.75
2018-08-07T00:36:51.999Z,64.21
2018-08-07T00:39:20.486Z,62.98
2018-08-07T00:41:48.996Z,62.27
2018-08-07T00:44:17.497Z,62.48
2018-08-07T00:46:45.982Z,61.17
2018-08-07T00:49:14.464Z,60.58
2018-08-07T00:51:42.968Z,61.59
2018-08-07T00:54:11.449Z,61.06
2018-08-07T00:56:39.963Z,60.60
2018-08-07T00:59:08.453Z,60.98
2018-08-07T01:01:36.968Z,60.03
2018-08-07T01:04:05.499Z,60.01
2018-08-07T01:06:34.004Z,59.75
2018-08-07T01:09:02.536Z,59.50
2018-08-07T01:11:31.047Z,58.87
2018-08-07T01:13:59.548Z,59.00
2018-08-07T01:16:28.029Z,59.50
2018-08-07T01:18:56.525Z,59.52
2018-08-07T01:21:25.027Z,58.48
2018-08-07T01:23:53.549Z,58.70
2018-08-07T01:26:22.036Z,58.17
2018-08-07T01:28:50.520Z,57.61
2018-08-07T01:31:19.052Z,57.09
2018-08-07T01:33:47.530Z,57.00
2018-08-07T01:36:16.033Z,56.46
2018-08-07T01:38:44.527Z,56.57
2018-08-07T01:41:13.053Z,57.13
2018-08-07T01:43:41.529Z,56.84
2018-08-07T01:46:10.010Z,56.70
2018-08-07T01:48:38.521Z,56.15
2018-08-07T01:51:07.252Z,56.82
2018-08-07T01:53:35.784Z,55.82
2018-08-07T01:56:04.284Z,55.89
2018-08-07T01:58:32.801Z,56.51
2018-08-07T02:01:01.268Z,56.33
2018-08-07T02:03:29.748Z,56.11
2018-08-07T02:05:58.247Z,56.37
2018-08-07T02:08:26.716Z,56.72
2018-08-07T02:10:55.189Z,56.61
2018-08-07T02:13:23.673Z,56.56
2018-08-07T02:15:52.176Z,57.36
2018-08-07T02:18:20.685Z,57.11
2018-08-07T02:20:49.185Z,56.54
2018-08-07T02:23:17.671Z,57.64
2018-08-07T02:25:46.180Z,57.92
2018-08-07T02:28:14.665Z,57.55
2018-08-07T02:30:43.175Z,57.58
2018-08-07T02:33:11.652Z,57.60
2018-08-07T02:35:40.138Z,57.94
2018-08-07T02:38:08.604Z,58.30
2018-08-07T02:40:37.105Z,58.14
2018-08-07T02:43:05.581Z,57.44
2018-08-07T02:45:34.061Z,57.75
2018-08-07T02:48:02.574Z,57.61
2018-08-07T02:50:31.051Z,57.61
2018-08-07T02:52:59.542Z,58.53
2018-08-07T02:55:28.298Z,57.68
2018-08-07T02:57:56.789Z,57.85
2018-08-07T03:00:25.272Z,58.05
2018-08-07T03:02:53.741Z,58.17
2018-08-07T03:05:22.490Z,58.81
2018-08-07T03:07:51.096Z,58.50
2018-08-07T03:10:19.623Z,55.84
2018-08-07T03:12:48.130Z,55.04
2018-08-07T03:15:18.168Z,54.67
2018-08-07T03:17:48.294Z,55.78
2018-08-07T03:20:17.370Z,55.98
2018-08-07T03:22:45.923Z,56.09
2018-08-07T03:25:15.160Z,57.24
2018-08-07T03:27:44.885Z,57.34
2018-08-07T03:30:15.294Z,58.84
2018-08-07T03:32:44.485Z,58.53
2018-08-07T03:35:13.191Z,58.20
2018-08-07T03:37:42.060Z,60.16
2018-08-07T03:40:14.294Z,59.89
2018-08-07T03:42:43.116Z,60.22
2018-08-07T03:45:13.769Z,60.38
2018-08-07T03:47:44.381Z,61.63
2018-08-07T03:50:18.229Z,61.38
2018-08-07T03:52:47.241Z,61.72
2018-08-07T03:55:17.698Z,62.82
2018-08-07T03:57:47.221Z,62.68
2018-08-07T04:00:19.680Z,62.83
2018-08-07T04:02:48.521Z,64.04
2018-08-07T04:05:17.560Z,64.70
2018-08-07T04:07:46.680Z,65.17
2018-08-07T04:10:16.684Z,64.96
2018-08-07T04:12:45.184Z,64.74
2018-08-07T04:15:15.228Z,65.35
2018-08-07T04:17:44.100Z,65.16
2018-08-07T04:20:14.183Z,64.25
2018-08-07T04:22:43.144Z,64.39
2018-08-07T04:25:11.668Z,64.17
2018-08-07T04:27:40.148Z,64.00
2018-08-07T04:30:11.945Z,64.25
2018-08-07T04:32:40.701Z,63.68
2018-08-07T04:35:09.265Z,64.21
2018-08-07T04:37:37.747Z,63.39
2018-08-07T04:40:06.952Z,63.21
2018-08-07T04:42:35.857Z,63.42
2018-08-07T04:45:05.414Z,63.58
2018-08-07T04:47:33.892Z,62.65
2018-08-07T04:50:02.665Z,62.56
2018-08-07T04:52:31.153Z,62.61
2018-08-07T04:54:59.660Z,63.04
2018-08-07T04:57:28.144Z,62.76
2018-08-07T04:59:56.623Z,62.53
2018-08-07T05:02:25.100Z,62.98
2018-08-07T05:04:53.591Z,62.24
2018-08-07T05:07:22.189Z,62.26
2018-08-07T05:09:50.717Z,62.71
2018-08-07T05:12:19.244Z,62.81
2018-08-07T05:14:47.717Z,62.08
2018-08-07T05:17:16.208Z,62.24
2018-08-07T05:19:44.709Z,62.37
2018-08-07T05:22:13.185Z,62.82
2018-08-07T05:24:41.703Z,61.92
2018-08-07T05:27:10.193Z,62.04
2018-08-07T05:29:38.677Z,62.24
2018-08-07T05:32:07.399Z,62.81
2018-08-07T05:34:35.879Z,62.19
2018-08-07T05:37:04.371Z,62.67
2018-08-07T05:39:32.859Z,62.02
2018-08-07T05:42:01.376Z,62.16
2018-08-07T05:44:29.888Z,62.87
2018-08-07T05:46:58.380Z,62.84
2018-08-07T05:49:26.932Z,62.52
2018-08-07T05:51:55.424Z,62.04
2018-08-07T05:54:23.908Z,62.77
2018-08-07T05:56:52.380Z,62.13
2018-08-07T05:59:20.900Z,62.75
2018-08-07T06:01:49.431Z,62.88
2018-08-07T06:04:17.928Z,62.93
2018-08-07T06:06:46.720Z,62.32
2018-08-07T06:09:15.209Z,62.93
2018-08-07T06:11:43.707Z,62.17
2018-08-07T06:14:12.420Z,62.68
2018-08-07T06:16:40.920Z,62.61
2018-08-07T06:19:09.482Z,62.36
2018-08-07T06:21:37.944Z,62.97
2018-08-07T06:24:06.442Z,62.83
2018-08-07T06:26:34.937Z,62.69
2018-08-07T06:29:03.416Z,63.00
2018-08-07T06:31:31.951Z,62.32
2018-08-07T06:34:00.581Z,62.87
2018-08-07T06:36:29.117Z,63.00
2018-08-07T06:38:57.649Z,62.84
2018-08-07T06:41:26.136Z,63.09
2018-08-07T06:43:54.640Z,62.45
2018-08-07T06:46:23.212Z,63.09
2018-08-07T06:48:51.720Z,62.62
2018-08-07T06:51:20.220Z,62.73
2018-08-07T06:53:48.757Z,62.13
2018-08-07T06:56:17.260Z,62.41
2018-08-07T06:58:45.803Z,61.46
2018-08-07T07:01:14.295Z,62.18
2018-08-07T07:03:42.821Z,63.06
2018-08-07T07:06:11.313Z,64.12
2018-08-07T07:08:39.848Z,64.52
2018-08-07T07:11:08.376Z,63.54
2018-08-07T07:13:36.929Z,63.45
2018-08-07T07:16:05.692Z,63.80
2018-08-07T07:18:34.204Z,63.94
2018-08-07T07:21:02.695Z,64.68
2018-08-07T07:23:31.191Z,64.88
2018-08-07T07:25:59.688Z,64.83
2018-08-07T07:28:28.187Z,64.11
2018-08-07T07:30:56.718Z,64.31
2018-08-07T07:33:25.200Z,64.84
2018-08-07T07:35:53.693Z,64.76
2018-08-07T07:38:22.216Z,64.40
2018-08-07T07:40:50.746Z,65.07
2018-08-07T07:43:19.247Z,64.34
2018-08-07T07:45:47.725Z,65.05
2018-08-07T07:48:16.199Z,64.55
2018-08-07T07:50:44.714Z,64.28
2018-08-07T07:53:13.206Z,65.02
2018-08-07T07:55:41.761Z,65.14
2018-08-07T07:58:10.254Z,64.69
2018-08-07T08:00:38.745Z,64.96
2018-08-07T08:03:07.340Z,64.91
2018-08-07T08:05:35.829Z,64.79
2018-08-07T08:08:04.392Z,64.87
2018-08-07T08:10:32.898Z,64.57
2018-08-07T08:13:01.411Z,65.46
2018-08-07T08:15:30.015Z,65.05
2018-08-07T08:17:58.529Z,65.12
2018-08-07T08:20:27.256Z,65.70
2018-08-07T08:22:56.117Z,65.91
2018-08-07T08:25:24.626Z,65.21
2018-08-07T08:27:53.162Z,65.85
2018-08-07T08:30:21.658Z,65.61
2018-08-07T08:32:50.162Z,65.94
2018-08-07T08:35:19.609Z,65.45
2018-08-07T08:37:48.588Z,65.68
2018-08-07T08:40:18.584Z,66.20
2018-08-07T08:42:47.107Z,65.76
2018-08-07T08:45:17.977Z,66.48
2018-08-07T08:47:47.543Z,66.64
2018-08-07T08:50:17.575Z,66.68
2018-08-07T08:52:47.055Z,66.32
2018-08-07T08:55:15.636Z,66.17
2018-08-07T08:57:45.010Z,66.42
2018-08-07T09:00:18.497Z,66.75
2018-08-07T09:02:47.933Z,66.25
2018-08-07T09:05:16.623Z,66.70
2018-08-07T09:07:46.055Z,66.48
2018-08-07T09:10:23.042Z,66.41
2018-08-07T09:12:52.206Z,66.37
2018-08-07T09:15:20.941Z,67.08
2018-08-07T09:17:49.703Z,66.47
2018-08-07T09:20:21.509Z,66.45
2018-08-07T09:22:50.476Z,67.17
2018-08-07T09:25:20.057Z,66.92
2018-08-07T09:27:48.823Z,67.02
2018-08-07T09:30:21.121Z,67.39
2018-08-07T09:32:50.952Z,66.71
2018-08-07T09:35:20.731Z,66.85
2018-08-07T09:37:49.553Z,66.70
2018-08-07T09:40:19.353Z,66.65
2018-08-07T09:42:49.303Z,67.15
2018-08-07T09:45:22.910Z,67.39
2018-08-07T09:47:51.777Z,67.26
2018-08-07T09:50:21.306Z,67.31
2018-08-07T09:52:50.470Z,67.39
2018-08-07T09:55:19.212Z,67.63
2018-08-07T09:57:48.817Z,67.74
2018-08-07T10:00:25.715Z,67.51
2018-08-07T10:02:57.196Z,68.08
2018-08-07T10:05:27.738Z,67.52
2018-08-07T10:07:56.361Z,67.65
2018-08-07T10:10:25.283Z,67.67
2018-08-07T10:12:54.071Z,67.79
2018-08-07T10:15:22.838Z,67.56
2018-08-07T10:17:51.686Z,67.80
2018-08-07T10:20:20.554Z,68.72
2018-08-07T10:22:49.035Z,68.71
2018-08-07T10:25:19.074Z,68.52
2018-08-07T10:27:48.673Z,68.86
2018-08-07T10:30:18.787Z,68.91
2018-08-07T10:32:48.149Z,68.82
2018-08-07T10:35:17.175Z,69.05
2018-08-07T10:37:46.324Z,68.78
2018-08-07T10:40:18.121Z,68.86
2018-08-07T10:42:46.631Z,69.14
2018-08-07T10:45:16.672Z,69.13
2018-08-07T10:47:45.209Z,69.40
2018-08-07T10:50:20.263Z,69.04
2018-08-07T10:52:49.094Z,69.04
2018-08-07T10:55:18.025Z,69.57
2018-08-07T10:57:47.860Z,69.40
2018-08-07T11:00:20.092Z,69.52
2018-08-07T11:02:49.767Z,69.52
2018-08-07T11:05:18.805Z,69.88
2018-08-07T11:07:47.309Z,70.30
2018-08-07T11:10:16.292Z,70.24
2018-08-07T11:12:44.817Z,70.58
2018-08-07T11:15:18.778Z,70.31
2018-08-07T11:17:48.437Z,70.30
2018-08-07T11:20:17.169Z,70.12
2018-08-07T11:22:47.423Z,70.22
2018-08-07T11:25:17.033Z,70.25
2018-08-07T11:27:45.582Z,69.95
2018-08-07T11:30:20.326Z,70.12
2018-08-07T11:32:49.221Z,70.00
2018-08-07T11:35:17.987Z,69.96
2018-08-07T11:37:50.060Z,69.99
2018-08-07T11:40:20.094Z,69.85
2018-08-07T11:42:49.517Z,69.87
2018-08-07T11:45:19.544Z,69.82
2018-08-07T11:47:48.360Z,70.01
2018-08-07T11:50:19.272Z,69.81
2018-08-07T11:52:48.220Z,69.76
2018-08-07T11:55:17.750Z,69.57
2018-08-07T11:57:47.201Z,69.80
2018-08-07T12:00:20.890Z,69.24
2018-08-07T12:02:49.527Z,69.34
2018-08-07T12:05:18.333Z,69.74
2018-08-07T12:07:46.880Z,69.15
2018-08-07T12:10:17.097Z,70.00
2018-08-07T12:12:46.019Z,69.71
2018-08-07T12:15:17.049Z,69.76
2018-08-07T12:17:45.713Z,70.05
2018-08-07T12:20:14.216Z,69.92
2018-08-07T12:22:42.775Z,70.16
2018-08-07T12:25:12.948Z,69.88
2018-08-07T12:27:41.487Z,69.92
2018-08-07T12:30:22.031Z,69.92
2018-08-07T12:32:50.545Z,70.22
2018-08-07T12:35:19.166Z,70.01
2018-08-07T12:37:47.733Z,69.91
2018-08-07T12:40:20.406Z,70.46
2018-08-07T12:42:49.583Z,69.58
2018-08-07T12:45:18.110Z,69.65
2018-08-07T12:47:47.047Z,70.33
2018-08-07T12:50:16.360Z,69.71
2018-08-07T12:52:44.852Z,70.29
2018-08-07T12:55:17.127Z,70.56
2018-08-07T12:57:46.209Z,69.93
2018-08-07T13:00:17.430Z,69.87
2018-08-07T13:02:45.948Z,70.06
2018-08-07T13:05:14.448Z,70.56
2018-08-07T13:07:42.942Z,69.93
2018-08-07T13:10:13.866Z,70.78
2018-08-07T13:12:43.247Z,70.48
2018-08-07T13:15:13.343Z,70.85
2018-08-07T13:17:42.009Z,70.33
2018-08-07T13:20:11.338Z,70.72
2018-08-07T13:22:40.631Z,70.51
2018-08-07T13:25:11.062Z,70.94
2018-08-07T13:27:39.975Z,70.75
2018-08-07T13:30:11.180Z,70.52
2018-08-07T13:32:39.785Z,70.67
2018-08-07T13:35:08.281Z,70.66
2018-08-07T13:37:36.759Z,70.83
2018-08-07T13:40:07.391Z,70.64
2018-08-07T13:42:35.919Z,70.63
2018-08-07T13:45:06.302Z,70.68
2018-08-07T13:47:34.845Z,70.78
2018-08-07T13:50:03.671Z,70.89
2018-08-07T13:52:32.176Z,70.42
2018-08-07T13:55:00.662Z,71.09
2018-08-07T13:57:29.154Z,70.80
2018-08-07T13:59:57.671Z,71.15
2018-08-07T14:02:26.157Z,71.05
2018-08-07T14:04:56.044Z,70.88
2018-08-07T14:07:24.542Z,70.78
2018-08-07T14:09:53.236Z,70.97
2018-08-07T14:12:22.292Z,70.77
2018-08-07T14:14:51.751Z,70.40
2018-08-07T14:17:20.338Z,70.87
2018-08-07T14:19:49.916Z,70.54
2018-08-07T14:22:19.472Z,71.12
2018-08-07T14:24:49.259Z,70.93
2018-08-07T14:27:17.801Z,71.04
2018-08-07T14:29:46.286Z,70.68
2018-08-07T14:32:14.803Z,71.24
2018-08-07T14:34:43.305Z,71.24
2018-08-07T14:37:11.860Z,71.37
2018-08-07T14:39:40.495Z,71.71
2018-08-07T14:42:09.151Z,71.52
2018-08-07T14:44:37.893Z,71.28
2018-08-07T14:47:06.598Z,71.92
2018-08-07T14:49:35.184Z,71.49
2018-08-07T14:52:03.695Z,71.33
2018-08-07T14:54:32.450Z,71.42
2018-08-07T14:57:01.346Z,70.95
2018-08-07T14:59:30.374Z,71.46
2018-08-07T15:01:59.047Z,70.75
2018-08-07T15:04:27.826Z,71.23
2018-08-07T15:06:56.462Z,71.47
2018-08-07T15:09:25.272Z,70.94
2018-08-07T15:11:54.125Z,71.47
2018-08-07T15:14:22.990Z,71.03
2018-08-07T15:16:51.487Z,71.31
2018-08-07T15:19:20.002Z,70.99
2018-08-07T15:21:48.564Z,71.21
2018-08-07T15:24:17.072Z,70.94
2018-08-07T15:26:45.638Z,71.98
2018-08-07T15:29:14.177Z,71.57
2018-08-07T15:31:42.780Z,72.21
2018-08-07T15:34:11.396Z,71.89
2018-08-07T15:36:39.966Z,72.35
2018-08-07T15:39:11.914Z,71.90
2018-08-07T15:41:40.866Z,71.96
2018-08-07T15:44:09.487Z,71.67
2018-08-07T15:46:38.047Z,72.32
2018-08-07T15:49:06.784Z,72.25
2018-08-07T15:51:35.352Z,71.81
2018-08-07T15:54:03.894Z,72.11
2018-08-07T15:56:32.628Z,72.07
2018-08-07T15:59:01.281Z,72.97
2018-08-07T16:01:29.887Z,72.27
2018-08-07T16:03:58.394Z,72.31
2018-08-07T16:06:26.972Z,72.75
2018-08-07T16:08:55.613Z,72.82
2018-08-07T16:11:24.135Z,72.51
2018-08-07T16:13:52.667Z,72.12
2018-08-07T16:16:21.253Z,72.10
2018-08-07T16:18:49.843Z,72.00
2018-08-07T16:21:18.391Z,72.12
2018-08-07T16:23:46.956Z,72.26
2018-08-07T16:26:15.507Z,71.95
2018-08-07T16:28:44.059Z,72.37
2018-08-07T16:31:12.657Z,71.33
2018-08-07T16:33:41.238Z,71.37
2018-08-07T16:36:09.770Z,71.64
2018-08-07T16:38:38.318Z,71.23
2018-08-07T16:41:07.243Z,71.13
2018-08-07T16:43:35.864Z,71.78
2018-08-07T16:46:04.427Z,71.28
2018-08-07T16:48:33.355Z,71.51
2018-08-07T16:51:01.943Z,71.61
2018-08-07T16:53:30.518Z,71.50
2018-08-07T16:55:59.024Z,71.38
2018-08-07T16:58:27.658Z,71.30
2018-08-07T17:00:56.263Z,71.59
2018-08-07T17:03:24.839Z,71.66
2018-08-07T17:05:53.439Z,71.31
2018-08-07T17:08:22.064Z,72.11
2018-08-07T17:10:50.850Z,71.49
2018-08-07T17:13:19.594Z,71.88
2018-08-07T17:15:48.238Z,71.87
2018-08-07T17:18:16.841Z,71.95
2018-08-07T17:20:45.572Z,72.27
2018-08-07T17:23:14.251Z,72.11
2018-08-07T17:25:42.825Z,72.22
2018-08-07T17:28:11.459Z,71.51
2018-08-07T17:30:40.096Z,71.67
2018-08-07T17:33:08.675Z,72.09
2018-08-07T17:35:37.453Z,72.33
2018-08-07T17:38:06.621Z,71.68
2018-08-07T17:40:35.303Z,72.11
2018-08-07T17:43:04.012Z,71.98
2018-08-07T17:45:32.675Z,72.27
2018-08-07T17:48:01.436Z,72.34
2018-08-07T17:50:30.106Z,72.29
2018-08-07T17:53:00.250Z,71.87
2018-08-07T17:55:29.507Z,72.18
2018-08-07T17:57:59.366Z,72.16
2018-08-07T18:00:28.141Z,71.81
2018-08-07T18:02:56.971Z,71.49
2018-08-07T18:05:25.732Z,71.21
2018-08-07T18:07:56.115Z,71.70
2018-08-07T18:10:25.031Z,72.12
2018-08-07T18:12:53.948Z,72.23
2018-08-07T18:15:23.644Z,71.50
2018-08-07T18:17:52.810Z,72.40
2018-08-07T18:20:23.110Z,71.87
2018-08-07T18:22:51.728Z,72.09
2018-08-07T18:25:20.457Z,72.22
2018-08-07T18:27:49.097Z,71.96
2018-08-07T18:30:19.835Z,72.00
2018-08-07T18:32:48.677Z,71.90
2018-08-07T18:35:20.376Z,72.64
2018-08-07T18:37:49.013Z,72.42
2018-08-07T18:40:17.551Z,72.79
2018-08-07T18:42:46.734Z,72.48
2018-08-07T18:45:15.777Z,72.38
2018-08-07T18:47:44.941Z,72.94
2018-08-07T18:50:16.344Z,72.54
2018-08-07T18:52:45.174Z,72.25
2018-08-07T18:55:14.631Z,72.87
2018-08-07T18:57:44.278Z,72.81
2018-08-07T19:00:16.319Z,73.04
2018-08-07T19:02:45.056Z,72.18
2018-08-07T19:05:16.649Z,72.36
2018-08-07T19:07:45.222Z,72.98
2018-08-07T19:10:14.308Z,72.88
2018-08-07T19:12:43.562Z,73.20
2018-08-07T19:15:13.585Z,73.11
2018-08-07T19:17:42.305Z,72.39
2018-08-07T19:20:12.855Z,72.78
2018-08-07T19:22:41.569Z,73.73
2018-08-07T19:25:11.174Z,74.08
2018-08-07T19:27:40.008Z,73.83
2018-08-07T19:30:10.660Z,74.42
2018-08-07T19:32:39.563Z,75.50
2018-08-07T19:35:09.249Z,76.39
2018-08-07T19:37:37.729Z,75.90
2018-08-07T19:40:08.131Z,74.89
2018-08-07T19:42:37.130Z,75.64
2018-08-07T19:45:08.143Z,75.57
2018-08-07T19:47:37.026Z,76.55
2018-08-07T19:50:06.839Z,74.96
2018-08-07T19:52:35.698Z,74.74
2018-08-07T19:55:04.650Z,74.33
2018-08-07T19:57:33.385Z,74.33
2018-08-07T20:00:01.996Z,75.35
2018-08-07T20:02:30.535Z,76.15
2018-08-07T20:04:59.050Z,73.95
2018-08-07T20:07:27.567Z,72.12
2018-08-07T20:09:56.091Z,70.70
2018-08-07T20:12:24.608Z,71.14
2018-08-07T20:14:53.250Z,71.02
2018-08-07T20:17:21.848Z,72.18
2018-08-07T20:19:50.500Z,71.12
2018-08-07T20:22:19.306Z,69.87
2018-08-07T20:24:48.175Z,69.44
2018-08-07T20:27:16.815Z,69.73
2018-08-07T20:29:45.665Z,71.03
2018-08-07T20:32:14.175Z,71.29
2018-08-07T20:34:43.306Z,71.96
2018-08-07T20:37:11.853Z,71.63
2018-08-07T20:39:40.667Z,72.48
2018-08-07T20:42:09.223Z,72.10
2018-08-07T20:44:37.764Z,72.44
2018-08-07T20:47:06.379Z,72.50
2018-08-07T20:49:34.962Z,72.47
2018-08-07T20:52:03.631Z,72.12
2018-08-07T20:54:32.146Z,72.37
2018-08-07T20:57:00.758Z,72.52
2018-08-07T20:59:29.325Z,72.50
2018-08-07T21:01:57.832Z,73.89
2018-08-07T21:04:26.381Z,73.18
2018-08-07T21:06:54.911Z,73.81
2018-08-07T21:09:23.596Z,73.76
2018-08-07T21:11:52.231Z,73.83
2018-08-07T21:14:20.848Z,73.27
2018-08-07T21:16:49.501Z,73.37
2018-08-07T21:19:18.100Z,73.49
2018-08-07T21:21:46.633Z,73.96
2018-08-07T21:24:15.159Z,73.28
2018-08-07T21:26:44.310Z,74.01
2018-08-07T21:29:12.813Z,74.13
2018-08-07T21:31:41.339Z,74.19
2018-08-07T21:34:09.841Z,74.23
2018-08-07T21:36:38.357Z,74.34
2018-08-07T21:39:08.585Z,74.19
2018-08-07T21:41:37.122Z,73.64
2018-08-07T21:44:05.737Z,74.26
2018-08-07T21:46:34.445Z,73.81
2018-08-07T21:49:03.006Z,74.66
2018-08-07T21:51:31.508Z,74.48
2018-08-07T21:54:00.156Z,74.10
2018-08-07T21:56:28.545Z,74.37
2018-08-07T21:58:57.062Z,74.62
2018-08-07T22:01:25.558Z,74.58
2018-08-07T22:03:54.060Z,74.53
2018-08-07T22:06:22.597Z,74.97
2018-08-07T22:08:51.089Z,74.55
2018-08-07T22:11:19.617Z,74.53
2018-08-07T22:13:48.140Z,74.67
2018-08-07T22:16:16.659Z,74.84
2018-08-07T22:18:45.200Z,74.58
2018-08-07T22:21:13.737Z,75.12
2018-08-07T22:23:42.242Z,74.85
2018-08-07T22:26:10.762Z,74.48
2018-08-07T22:28:39.285Z,74.44
2018-08-07T22:31:07.830Z,74.91
2018-08-07T22:33:36.427Z,75.19
2018-08-07T22:36:05.257Z,74.92
2018-08-07T22:38:33.816Z,74.57
2018-08-07T22:41:02.303Z,75.17
2018-08-07T22:43:30.819Z,74.77
2018-08-07T22:45:59.343Z,75.16
2018-08-07T22:48:27.970Z,74.79
2018-08-07T22:50:56.470Z,74.98
2018-08-07T22:53:25.025Z,74.91
2018-08-07T22:55:53.511Z,75.12
2018-08-07T22:58:22.128Z,75.97
2018-08-07T23:00:50.635Z,75.54
2018-08-07T23:03:19.274Z,75.44
2018-08-07T23:05:47.784Z,75.96
2018-08-07T23:08:16.367Z,75.56
2018-08-07T23:10:44.866Z,75.93
2018-08-07T23:13:13.461Z,75.83
2018-08-07T23:15:41.988Z,75.40
2018-08-07T23:18:10.557Z,76.03
2018-08-07T23:20:39.056Z,75.67
2018-08-07T23:23:07.661Z,75.56
2018-08-07T23:25:36.155Z,76.23
2018-08-07T23:28:04.694Z,75.42
2018-08-07T23:30:33.181Z,75.85
2018-08-07T23:33:01.682Z,75.45
2018-08-07T23:35:30.210Z,76.07
2018-08-07T23:37:58.687Z,75.76
2018-08-07T23:40:27.183Z,76.12
2018-08-07T23:42:55.698Z,76.19
2018-08-07T23:45:24.262Z,76.29
2018-08-07T23:47:52.726Z,76.40
2018-08-07T23:50:21.218Z,76.04
2018-08-07T23:52:49.760Z,76.38
2018-08-07T23:55:18.280Z,76.53
2018-08-07T23:57:46.814Z,76.38
